Time;durP1;ratioP1;P1;durP2;ratioP2;P2;SDS_P1;SDS_P2;PMS_P1;PMS_P2;Temp;Humidity;BMP_temperature;BMP_pressure;BME280_temperature;BME280_humidity;BME280_pressure;Samples;Min_cycle;Max_cycle;Signal;HPM_P1;HPM_P2
2023/01/28 00:01:12;;;;;;;22.63;18.25;;;;;;;;;;10333483;28;20098;-68
2023/01/28 00:06:13;;;;;;;25.67;19.00;;;;;;;;;;10330372;28;20072;-68
2023/01/28 00:11:11;;;;;;;37.45;30.10;;;;;;;;;;10331565;28;20060;-68
2023/01/28 00:16:10;;;;;;;20.58;15.80;;;;;;;;;;10332233;28;20514;-68
2023/01/28 00:21:10;;;;;;;20.02;15.45;;;;;;;;;;10330621;28;20040;-68
2023/01/28 00:26:11;;;;;;;23.75;16.40;;;;;;;;;;10313964;28;20080;-67
2023/01/28 00:31:15;;;;;;;20.60;16.57;;;;;;;;;;10312101;28;20072;-67
2023/01/28 00:36:14;;;;;;;24.70;18.23;;;;;;;;;;10330048;28;20084;-67
2023/01/28 00:41:15;;;;;;;23.00;18.27;;;;;;;;;;10329367;28;20521;-68
2023/01/28 00:46:13;;;;;;;20.50;15.75;;;;;;;;;;10333995;28;20068;-68
2023/01/28 00:51:12;;;;;;;18.80;15.38;;;;;;;;;;10331492;28;20071;-67
2023/01/28 00:56:12;;;;;;;22.40;17.02;;;;;;;;;;10331446;28;20068;-68
2023/01/28 01:01:13;;;;;;;18.35;15.55;;;;;;;;;;10333902;28;20083;-67
2023/01/28 01:06:13;;;;;;;19.48;14.82;;;;;;;;;;10320017;28;20079;-67
2023/01/28 01:11:11;;;;;;;18.73;14.95;;;;;;;;;;10318795;28;20068;-68
2023/01/28 01:16:11;;;;;;;20.98;14.82;;;;;;;;;;10338410;28;20091;-68
2023/01/28 01:21:11;;;;;;;19.50;14.82;;;;;;;;;;10338125;28;20083;-68
2023/01/28 01:26:10;;;;;;;15.38;13.48;;;;;;;;;;10336694;28;20068;-69
2023/01/28 01:31:10;;;;;;;15.13;11.02;;;;;;;;;;10340789;28;20063;-68
2023/01/28 01:36:09;;;;;;;13.98;11.88;;;;;;;;;;10336829;28;20107;-69
2023/01/28 01:41:09;;;;;;;13.45;11.18;;;;;;;;;;10337464;28;20064;-69
2023/01/28 01:46:07;;;;;;;16.10;13.05;;;;;;;;;;10337251;28;20078;-69
2023/01/28 01:51:07;;;;;;;14.60;12.77;;;;;;;;;;10338096;28;20330;-69
2023/01/28 01:56:07;;;;;;;17.27;13.15;;;;;;;;;;10334833;28;20482;-69
2023/01/28 02:01:07;;;;;;;19.85;16.23;;;;;;;;;;10318192;28;20533;-69
2023/01/28 02:06:05;;;;;;;21.20;14.45;;;;;;;;;;10336056;28;21301;-69
2023/01/28 02:11:05;;;;;;;12.15;10.60;;;;;;;;;;10336893;28;20072;-69
2023/01/28 02:16:04;;;;;;;16.30;11.32;;;;;;;;;;10336850;28;20072;-69
2023/01/28 02:21:32;;;;;;;14.88;13.18;;;;;;;;;;10315420;28;20044;-69
2023/01/28 02:26:48;;;;;;;22.23;13.02;;;;;;;;;;10226860;28;20111;-69
2023/01/28 02:31:51;;;;;;;12.00;10.68;;;;;;;;;;10315120;28;20040;-69
2023/01/28 02:36:51;;;;;;;14.00;11.23;;;;;;;;;;10314937;28;20083;-68
2023/01/28 02:41:51;;;;;;;13.07;10.95;;;;;;;;;;10335822;28;20068;-69
2023/01/28 02:52:16;;;;;;;14.38;11.48;;;;;;;;;;10316311;28;20535;-69
2023/01/28 02:57:21;;;;;;;15.30;11.68;;;;;;;;;;10332074;28;20075;-69
2023/01/28 03:02:19;;;;;;;;;;;;;;;;;;10316577;28;20083;-68
2023/01/28 03:07:20;;;;;;;14.57;11.38;;;;;;;;;;10319606;28;20504;-68
2023/01/28 03:38:55;;;;;;;15.98;12.32;;;;;;;;;;10332475;28;20086;-69
2023/01/28 03:43:54;;;;;;;15.18;11.38;;;;;;;;;;10322094;28;20076;-69
2023/01/28 03:48:53;;;;;;;17.35;13.43;;;;;;;;;;10331718;28;20071;-69
2023/01/28 03:53:51;;;;;;;17.88;13.20;;;;;;;;;;10314086;28;20052;-69
2023/01/28 03:58:55;;;;;;;12.82;10.88;;;;;;;;;;10317049;28;20071;-68
2023/01/28 04:03:54;;;;;;;15.40;13.07;;;;;;;;;;10314480;28;20486;-69
2023/01/28 04:08:58;;;;;;;15.10;10.90;;;;;;;;;;10331728;28;20430;-68
2023/01/28 04:14:22;;;;;;;16.55;11.57;;;;;;;;;;10313766;28;20083;-68
2023/01/28 04:19:24;;;;;;;35.22;28.05;;;;;;;;;;10312692;28;20084;-69
2023/01/28 04:24:24;;;;;;;21.27;19.08;;;;;;;;;;10332461;28;20505;-68
2023/01/28 04:29:25;;;;;;;19.65;14.20;;;;;;;;;;10337656;28;20076;-68
2023/01/28 04:34:28;;;;;;;13.18;9.82;;;;;;;;;;10314979;28;20086;-68
2023/01/28 04:39:43;;;;;;;14.88;11.23;;;;;;;;;;10309865;28;20084;-68
2023/01/28 04:44:52;;;;;;;14.77;13.15;;;;;;;;;;10314157;28;20090;-68
2023/01/28 04:50:19;;;;;;;23.60;21.27;;;;;;;;;;10327592;28;20450;-67
2023/01/28 04:55:36;;;;;;;19.50;14.23;;;;;;;;;;10328241;28;20075;-67
2023/01/28 05:00:35;;;;;;;13.60;11.88;;;;;;;;;;10318863;28;20083;-68
2023/01/28 05:05:34;;;;;;;12.50;11.20;;;;;;;;;;10332713;28;20095;-67
2023/01/28 05:10:55;;;;;;;14.05;12.25;;;;;;;;;;10319339;28;20080;-67
2023/01/28 05:15:55;;;;;;;12.18;9.50;;;;;;;;;;10330434;28;20083;-67
2023/01/28 05:20:53;;;;;;;18.33;13.82;;;;;;;;;;10310454;28;20623;-68
2023/01/28 05:25:51;;;;;;;13.23;11.02;;;;;;;;;;10328730;28;20470;-68
2023/01/28 05:30:50;;;;;;;18.75;13.88;;;;;;;;;;10327551;28;20453;-68
2023/01/28 05:35:50;;;;;;;8.75;7.90;;;;;;;;;;10329869;28;20565;-68
2023/01/28 05:40:50;;;;;;;9.82;8.63;;;;;;;;;;10324078;28;20552;-68
2023/01/28 05:45:48;;;;;;;29.67;23.35;;;;;;;;;;10327065;28;20051;-68
2023/01/28 05:51:06;;;;;;;12.90;10.35;;;;;;;;;;10334845;28;20088;-67
2023/01/28 05:56:07;;;;;;;16.67;14.45;;;;;;;;;;10335826;28;20079;-68
2023/01/28 06:01:07;;;;;;;9.70;8.52;;;;;;;;;;10334325;28;20087;-68
2023/01/28 06:06:14;;;;;;;21.25;16.20;;;;;;;;;;10318688;28;20056;-68
2023/01/28 06:11:14;;;;;;;15.70;11.57;;;;;;;;;;10319365;28;20072;-69
2023/01/28 06:16:13;;;;;;;11.35;9.27;;;;;;;;;;10317375;28;20049;-68
2023/01/28 06:21:31;;;;;;;18.35;13.88;;;;;;;;;;10318014;28;20496;-68
2023/01/28 06:26:29;;;;;;;10.88;9.70;;;;;;;;;;10319199;28;20059;-68
2023/01/28 06:31:27;;;;;;;12.75;11.45;;;;;;;;;;10318912;28;20080;-68
2023/01/28 06:36:26;;;;;;;14.48;11.07;;;;;;;;;;10334787;28;20079;-69
2023/01/28 06:41:25;;;;;;;12.95;11.43;;;;;;;;;;10338186;28;20075;-68
2023/01/28 06:46:24;;;;;;;13.50;10.35;;;;;;;;;;10346407;28;20079;-68
2023/01/28 06:51:22;;;;;;;12.90;9.57;;;;;;;;;;10345236;28;20090;-68
2023/01/28 06:56:20;;;;;;;12.10;10.55;;;;;;;;;;10333828;28;20067;-68
2023/01/28 07:01:20;;;;;;;15.15;12.55;;;;;;;;;;10334482;28;20139;-68
2023/01/28 07:06:18;;;;;;;16.48;14.70;;;;;;;;;;10338111;28;20075;-68
2023/01/28 07:11:16;;;;;;;17.70;15.80;;;;;;;;;;10339547;28;20072;-69
2023/01/28 07:16:14;;;;;;;40.70;22.88;;;;;;;;;;10344220;28;20071;-68
2023/01/28 07:21:14;;;;;;;30.10;23.48;;;;;;;;;;10335181;28;20080;-68
2023/01/28 07:26:12;;;;;;;53.53;30.63;;;;;;;;;;10332500;28;20496;-68
2023/01/28 07:31:10;;;;;;;25.13;18.75;;;;;;;;;;10334438;28;20078;-68
2023/01/28 07:36:09;;;;;;;32.47;25.60;;;;;;;;;;10331886;28;20068;-68
2023/01/28 07:41:08;;;;;;;45.90;31.55;;;;;;;;;;10331443;28;20068;-69
2023/01/28 07:46:07;;;;;;;40.55;26.42;;;;;;;;;;10334923;28;20060;-68
2023/01/28 07:51:05;;;;;;;45.72;35.63;;;;;;;;;;10331981;28;20064;-71
2023/01/28 07:56:05;;;;;;;53.30;36.72;;;;;;;;;;10331762;28;20501;-71
2023/01/28 08:01:04;;;;;;;31.10;26.35;;;;;;;;;;10335041;28;20488;-71
2023/01/28 08:06:02;;;;;;;44.20;31.50;;;;;;;;;;10329069;28;20071;-72
2023/01/28 08:11:07;;;;;;;48.38;37.30;;;;;;;;;;10329870;28;20066;-71
2023/01/28 08:16:07;;;;;;;40.45;27.77;;;;;;;;;;10338790;28;20102;-72
2023/01/28 08:21:05;;;;;;;31.08;25.85;;;;;;;;;;10343192;28;20071;-70
2023/01/28 08:26:03;;;;;;;36.88;31.00;;;;;;;;;;10344000;28;20105;-71
2023/01/28 08:31:02;;;;;;;25.73;20.05;;;;;;;;;;10339357;28;20067;-70
2023/01/28 08:36:04;;;;;;;26.27;21.35;;;;;;;;;;10337444;28;20075;-70
2023/01/28 08:41:02;;;;;;;58.67;35.95;;;;;;;;;;10330643;28;20076;-70
2023/01/28 08:46:00;;;;;;;36.20;27.77;;;;;;;;;;10337001;28;20056;-70
2023/01/28 08:50:58;;;;;;;61.60;40.95;;;;;;;;;;10333808;28;20072;-70
2023/01/28 08:55:58;;;;;;;40.75;27.63;;;;;;;;;;10343582;28;20477;-71
2023/01/28 09:00:56;;;;;;;39.85;26.52;;;;;;;;;;10335678;28;20079;-71
2023/01/28 09:05:59;;;;;;;66.53;40.60;;;;;;;;;;10328883;28;20068;-70
2023/01/28 09:10:59;;;;;;;65.63;35.25;;;;;;;;;;10330808;28;20075;-70
2023/01/28 09:15:58;;;;;;;63.15;43.33;;;;;;;;;;10328774;28;20056;-70
2023/01/28 09:20:56;;;;;;;53.28;37.40;;;;;;;;;;10335497;28;20071;-69
2023/01/28 09:26:01;;;;;;;63.00;28.98;;;;;;;;;;10332958;28;20060;-70
2023/01/28 09:31:02;;;;;;;87.35;44.03;;;;;;;;;;10343488;28;20064;-70
2023/01/28 09:36:01;;;;;;;79.10;34.47;;;;;;;;;;10347415;28;20104;-70
2023/01/28 09:41:02;;;;;;;44.65;28.27;;;;;;;;;;10340401;28;20075;-71
2023/01/28 09:46:02;;;;;;;63.65;30.27;;;;;;;;;;10334442;28;20075;-70
2023/01/28 09:51:01;;;;;;;46.72;25.95;;;;;;;;;;10327392;28;20076;-71
2023/01/28 09:56:02;;;;;;;65.78;39.92;;;;;;;;;;10329286;28;20439;-70
2023/01/28 10:01:03;;;;;;;29.80;18.83;;;;;;;;;;10332885;28;20497;-71
2023/01/28 10:06:11;;;;;;;43.88;27.48;;;;;;;;;;10337349;28;20075;-70
2023/01/28 10:11:15;;;;;;;47.45;32.38;;;;;;;;;;10345455;28;20068;-70
2023/01/28 10:16:18;;;;;;;42.70;30.57;;;;;;;;;;10349303;28;20067;-71
2023/01/28 10:21:17;;;;;;;36.58;31.13;;;;;;;;;;10347742;28;20080;-71
2023/01/28 10:26:30;;;;;;;27.10;19.63;;;;;;;;;;10331888;28;20060;-72
2023/01/28 10:31:31;;;;;;;19.10;13.68;;;;;;;;;;10333189;28;20094;-71
2023/01/28 10:36:29;;;;;;;32.88;23.83;;;;;;;;;;10343498;28;20083;-72
2023/01/28 10:41:29;;;;;;;25.83;20.08;;;;;;;;;;10335076;28;20075;-73
2023/01/28 10:46:29;;;;;;;33.13;24.70;;;;;;;;;;10335605;28;20041;-72
2023/01/28 10:51:31;;;;;;;24.98;18.17;;;;;;;;;;10348223;28;20068;-73
2023/01/28 10:56:32;;;;;;;49.38;33.55;;;;;;;;;;10337749;28;20083;-72
2023/01/28 11:01:40;;;;;;;28.50;22.52;;;;;;;;;;10345211;28;20642;-72
2023/01/28 11:06:42;;;;;;;24.75;20.52;;;;;;;;;;10332531;28;20078;-72
2023/01/28 11:11:41;;;;;;;28.55;20.73;;;;;;;;;;10342433;28;20070;-72
2023/01/28 11:16:40;;;;;;;23.25;17.92;;;;;;;;;;10334877;28;20059;-72
2023/01/28 11:21:38;;;;;;;23.58;19.80;;;;;;;;;;10331641;28;20075;-72
2023/01/28 11:26:38;;;;;;;53.85;38.22;;;;;;;;;;10341266;28;20072;-70
2023/01/28 11:31:41;;;;;;;46.30;32.05;;;;;;;;;;10335824;28;20071;-70
2023/01/28 11:36:49;;;;;;;25.65;21.95;;;;;;;;;;10333679;28;20080;-70
2023/01/28 11:41:47;;;;;;;22.65;19.40;;;;;;;;;;10334746;28;20080;-70
2023/01/28 11:46:53;;;;;;;24.83;19.02;;;;;;;;;;10343226;28;20064;-70
2023/01/28 11:51:56;;;;;;;26.67;22.67;;;;;;;;;;10332538;28;20071;-70
2023/01/28 11:57:00;;;;;;;25.73;22.10;;;;;;;;;;10332848;28;20071;-71
2023/01/28 12:02:04;;;;;;;29.25;24.88;;;;;;;;;;10331129;28;20513;-70
2023/01/28 12:07:12;;;;;;;40.37;34.60;;;;;;;;;;10332044;28;20068;-70
2023/01/28 12:12:17;;;;;;;40.30;31.35;;;;;;;;;;10332320;28;20098;-70
2023/01/28 12:17:15;;;;;;;;;;;;;;;;;;10332090;28;20066;-70
2023/01/28 12:22:32;;;;;;;28.77;23.27;;;;;;;;;;10336521;28;19963;-70
2023/01/28 12:27:35;;;;;;;24.58;21.52;;;;;;;;;;10333734;28;20074;-69
2023/01/28 12:32:39;;;;;;;54.03;39.42;;;;;;;;;;10327931;28;20060;-70
2023/01/28 12:37:45;;;;;;;45.72;34.70;;;;;;;;;;10336034;28;20496;-70
2023/01/28 12:42:47;;;;;;;35.72;28.70;;;;;;;;;;10331074;28;20095;-70
2023/01/28 12:47:52;;;;;;;27.70;24.10;;;;;;;;;;10330328;28;20068;-70
2023/01/28 12:52:54;;;;;;;50.40;36.75;;;;;;;;;;10330598;28;20434;-69
2023/01/28 12:57:52;;;;;;;46.65;35.65;;;;;;;;;;10329136;28;20087;-69
2023/01/28 13:02:53;;;;;;;33.42;27.33;;;;;;;;;;10345641;28;20078;-69
2023/01/28 13:07:54;;;;;;;26.83;21.10;;;;;;;;;;10349519;28;20064;-69
2023/01/28 13:12:53;;;;;;;34.55;28.25;;;;;;;;;;10336969;28;20489;-68
2023/01/28 13:17:55;;;;;;;81.47;56.33;;;;;;;;;;10335848;28;20071;-69
2023/01/28 13:23:01;;;;;;;32.85;25.05;;;;;;;;;;10329809;28;20079;-69
2023/01/28 13:28:00;;;;;;;67.80;48.45;;;;;;;;;;10341720;28;20071;-69
2023/01/28 13:33:00;;;;;;;63.95;43.55;;;;;;;;;;10330590;28;20090;-69
2023/01/28 13:37:59;;;;;;;35.50;28.65;;;;;;;;;;10343941;28;20102;-69
2023/01/28 13:43:00;;;;;;;23.05;19.38;;;;;;;;;;10325126;28;20071;-69
2023/01/28 13:48:01;;;;;;;35.33;27.60;;;;;;;;;;10329323;28;20072;-69
2023/01/28 13:53:02;;;;;;;25.92;21.42;;;;;;;;;;10328189;28;20076;-69
2023/01/28 13:58:15;;;;;;;30.23;25.50;;;;;;;;;;10328048;28;20509;-69
2023/01/28 14:03:26;;;;;;;31.85;26.00;;;;;;;;;;10339191;28;20072;-69
2023/01/28 14:08:42;;;;;;;55.17;40.40;;;;;;;;;;10326899;28;20059;-69
2023/01/28 14:13:47;;;;;;;41.55;29.13;;;;;;;;;;10321748;28;20079;-69
2023/01/28 14:18:48;;;;;;;73.32;47.88;;;;;;;;;;10344143;28;21030;-71
2023/01/28 14:23:48;;;;;;;44.05;34.60;;;;;;;;;;10343372;28;20071;-70
2023/01/28 14:28:49;;;;;;;37.70;29.95;;;;;;;;;;10361239;28;20091;-70
2023/01/28 14:33:49;;;;;;;37.88;28.98;;;;;;;;;;10344511;28;20075;-69
2023/01/28 14:38:47;;;;;;;35.55;27.27;;;;;;;;;;10345214;28;20079;-68
2023/01/28 14:43:46;;;;;;;40.00;33.60;;;;;;;;;;10330533;28;20103;-68
2023/01/28 14:48:48;;;;;;;33.22;26.58;;;;;;;;;;10332217;28;20060;-68
2023/01/28 14:54:01;;;;;;;51.50;38.92;;;;;;;;;;10333902;28;20079;-68
2023/01/28 14:59:03;;;;;;;63.33;45.72;;;;;;;;;;10335007;28;20071;-68
2023/01/28 15:04:02;;;;;;;43.58;33.58;;;;;;;;;;10338353;28;20072;-68
2023/01/28 15:09:06;;;;;;;48.95;32.83;;;;;;;;;;10333740;28;20465;-68
2023/01/28 15:14:12;;;;;;;63.53;41.90;;;;;;;;;;10331399;28;20071;-69
2023/01/28 15:19:11;;;;;;;100.03;70.95;;;;;;;;;;10331734;28;20071;-68
2023/01/28 15:24:12;;;;;;;75.88;53.50;;;;;;;;;;10338184;28;20079;-68
2023/01/28 15:29:23;;;;;;;94.25;56.03;;;;;;;;;;10342032;28;20072;-66
2023/01/28 15:34:22;;;;;;;115.38;71.20;;;;;;;;;;10336371;28;20079;-68
2023/01/28 15:39:24;;;;;;;98.40;67.82;;;;;;;;;;10343878;28;20075;-67
2023/01/28 15:44:28;;;;;;;103.35;67.68;;;;;;;;;;10334349;28;20076;-68
2023/01/28 15:49:27;;;;;;;163.10;110.20;;;;;;;;;;10338095;28;20505;-69
2023/01/28 15:54:29;;;;;;;197.77;127.35;;;;;;;;;;10344716;28;20322;-69
2023/01/28 15:59:30;;;;;;;144.65;99.55;;;;;;;;;;10329937;28;20504;-69
2023/01/28 16:04:29;;;;;;;111.07;75.78;;;;;;;;;;10337205;28;20060;-68
2023/01/28 16:09:29;;;;;;;72.63;58.08;;;;;;;;;;10329276;28;20075;-68
2023/01/28 16:14:30;;;;;;;130.43;100.97;;;;;;;;;;10338974;28;20077;-68
2023/01/28 16:19:32;;;;;;;102.95;68.15;;;;;;;;;;10337301;28;20072;-69
2023/01/28 16:24:31;;;;;;;84.97;62.90;;;;;;;;;;10329823;28;20602;-69
2023/01/28 16:29:31;;;;;;;56.72;49.88;;;;;;;;;;10325996;28;20581;-70
2023/01/28 16:34:32;;;;;;;50.70;40.10;;;;;;;;;;10326244;28;20079;-68
2023/01/28 16:39:33;;;;;;;52.17;39.17;;;;;;;;;;10329712;28;20079;-68
2023/01/28 16:44:33;;;;;;;132.43;68.03;;;;;;;;;;10321032;28;20146;-68
2023/01/28 16:49:31;;;;;;;90.35;53.55;;;;;;;;;;10329868;28;20072;-68
2023/01/28 16:54:31;;;;;;;123.90;67.28;;;;;;;;;;10330519;28;20076;-68
2023/01/28 16:59:29;;;;;;;83.57;50.00;;;;;;;;;;10340776;28;20072;-69
2023/01/28 17:04:29;;;;;;;71.32;50.60;;;;;;;;;;10331963;28;20072;-69
2023/01/28 17:09:27;;;;;;;75.50;51.25;;;;;;;;;;10340294;28;20040;-69
2023/01/28 17:14:25;;;;;;;78.30;48.25;;;;;;;;;;10328943;28;20063;-68
2023/01/28 17:19:24;;;;;;;104.53;63.08;;;;;;;;;;10329262;28;20079;-69
2023/01/28 17:24:26;;;;;;;48.28;36.00;;;;;;;;;;10334373;28;20098;-69
2023/01/28 17:29:24;;;;;;;40.95;31.27;;;;;;;;;;10328713;28;20532;-69
2023/01/28 17:34:24;;;;;;;76.93;51.35;;;;;;;;;;10330207;28;20076;-69
2023/01/28 17:39:22;;;;;;;79.82;55.88;;;;;;;;;;10332196;28;20076;-69
2023/01/28 17:44:22;;;;;;;61.95;43.22;;;;;;;;;;10326900;28;20072;-69
2023/01/28 17:49:20;;;;;;;47.25;35.83;;;;;;;;;;10338988;28;20535;-69
2023/01/28 17:54:19;;;;;;;53.00;41.10;;;;;;;;;;10335325;28;20079;-71
2023/01/28 17:59:20;;;;;;;64.00;51.15;;;;;;;;;;10337016;28;20457;-70
2023/01/28 18:04:22;;;;;;;82.10;56.08;;;;;;;;;;10333739;28;20076;-70
2023/01/28 18:09:21;;;;;;;48.55;33.25;;;;;;;;;;10337857;28;20075;-70
2023/01/28 18:14:19;;;;;;;50.83;37.08;;;;;;;;;;10335277;28;20068;-69
2023/01/28 18:19:18;;;;;;;47.03;34.47;;;;;;;;;;10335842;28;20072;-69
2023/01/28 18:24:18;;;;;;;38.25;31.92;;;;;;;;;;10343035;28;20075;-69
2023/01/28 18:29:19;;;;;;;34.42;29.15;;;;;;;;;;10337659;28;20076;-69
2023/01/28 18:34:18;;;;;;;32.72;26.95;;;;;;;;;;10347208;28;20080;-70
2023/01/28 18:39:19;;;;;;;46.83;36.17;;;;;;;;;;10348634;28;20088;-69
2023/01/28 18:44:19;;;;;;;37.58;27.95;;;;;;;;;;10332976;28;20519;-69
2023/01/28 18:49:19;;;;;;;34.60;26.52;;;;;;;;;;10333892;28;20473;-69
2023/01/28 18:54:21;;;;;;;45.33;31.52;;;;;;;;;;10327111;28;20072;-69
2023/01/28 18:59:22;;;;;;;41.30;32.30;;;;;;;;;;10339960;28;20072;-68
2023/01/28 19:04:21;;;;;;;36.67;32.35;;;;;;;;;;10340737;28;20083;-69
2023/01/28 19:09:22;;;;;;;36.70;26.77;;;;;;;;;;10331010;28;20087;-69
2023/01/28 19:14:22;;;;;;;26.95;20.92;;;;;;;;;;10340048;28;20076;-69
2023/01/28 19:19:23;;;;;;;30.48;24.67;;;;;;;;;;10339908;28;20075;-68
2023/01/28 19:24:25;;;;;;;108.32;73.18;;;;;;;;;;10320735;28;20524;-69
2023/01/28 19:29:27;;;;;;;37.08;31.10;;;;;;;;;;10345741;28;20516;-69
2023/01/28 19:34:27;;;;;;;99.05;71.55;;;;;;;;;;10337350;28;20064;-69
2023/01/28 19:39:27;;;;;;;56.22;44.42;;;;;;;;;;10335703;28;20559;-68
2023/01/28 19:44:31;;;;;;;72.78;51.58;;;;;;;;;;10339668;28;20067;-69
2023/01/28 19:49:31;;;;;;;59.10;41.92;;;;;;;;;;10337414;28;20512;-70
2023/01/28 19:54:33;;;;;;;260.88;177.52;;;;;;;;;;10343882;28;20059;-68
2023/01/28 19:59:33;;;;;;;52.17;39.13;;;;;;;;;;10334773;28;20067;-68
2023/01/28 20:04:33;;;;;;;51.80;39.47;;;;;;;;;;10331783;28;20093;-69
2023/01/28 20:09:34;;;;;;;32.95;25.77;;;;;;;;;;10334085;28;20079;-68
2023/01/28 20:14:34;;;;;;;37.78;26.98;;;;;;;;;;10328204;28;20477;-67
2023/01/28 20:19:36;;;;;;;28.67;24.10;;;;;;;;;;10332870;28;20079;-68
2023/01/28 20:24:38;;;;;;;30.08;24.88;;;;;;;;;;10333610;28;20880;-67
2023/01/28 20:29:38;;;;;;;28.88;23.15;;;;;;;;;;10332999;28;20552;-68
2023/01/28 20:34:37;;;;;;;30.45;25.98;;;;;;;;;;10331707;28;20079;-70
2023/01/28 20:39:38;;;;;;;31.08;23.45;;;;;;;;;;10338277;28;20079;-70
2023/01/28 20:44:39;;;;;;;37.10;25.60;;;;;;;;;;10331360;28;20466;-69
2023/01/28 20:49:39;;;;;;;32.95;25.60;;;;;;;;;;10336146;28;20048;-68
2023/01/28 20:54:41;;;;;;;28.52;23.58;;;;;;;;;;10335013;28;20071;-69
2023/01/28 20:59:41;;;;;;;32.90;27.13;;;;;;;;;;10328686;28;20070;-69
2023/01/28 21:04:40;;;;;;;36.55;27.00;;;;;;;;;;10330346;28;20068;-68
2023/01/28 21:09:41;;;;;;;31.98;25.30;;;;;;;;;;10333470;28;20524;-68
2023/01/28 21:14:40;;;;;;;25.10;20.88;;;;;;;;;;10334501;28;20075;-68
2023/01/28 21:19:38;;;;;;;22.17;18.92;;;;;;;;;;10327969;28;20068;-68
2023/01/28 21:24:36;;;;;;;19.73;16.85;;;;;;;;;;10336359;28;20079;-67
2023/01/28 21:29:37;;;;;;;20.33;16.60;;;;;;;;;;10335538;28;20079;-69
2023/01/28 21:34:35;;;;;;;20.92;17.63;;;;;;;;;;10331870;28;20071;-67
2023/01/28 21:39:34;;;;;;;18.73;15.10;;;;;;;;;;10339691;28;20086;-68
2023/01/28 21:44:33;;;;;;;16.73;14.70;;;;;;;;;;10341109;28;20068;-67
2023/01/28 21:49:33;;;;;;;15.50;13.85;;;;;;;;;;10341792;28;20036;-67
2023/01/28 21:54:31;;;;;;;17.30;15.38;;;;;;;;;;10344104;28;20075;-68
2023/01/28 21:59:31;;;;;;;15.45;13.25;;;;;;;;;;10342548;28;20091;-68
2023/01/28 22:04:30;;;;;;;17.35;14.52;;;;;;;;;;10336993;28;20076;-69
2023/01/28 22:09:30;;;;;;;25.50;20.05;;;;;;;;;;10348772;28;20065;-69
2023/01/28 22:14:28;;;;;;;16.40;14.45;;;;;;;;;;10338153;28;20075;-69
2023/01/28 22:19:26;;;;;;;17.58;13.68;;;;;;;;;;10335490;28;20307;-69
2023/01/28 22:24:24;;;;;;;20.45;16.65;;;;;;;;;;10333647;28;20079;-69
2023/01/28 22:29:25;;;;;;;19.27;16.58;;;;;;;;;;10337345;28;20072;-69
2023/01/28 22:34:23;;;;;;;19.23;15.98;;;;;;;;;;10329500;28;20080;-68
2023/01/28 22:39:21;;;;;;;20.13;15.80;;;;;;;;;;10332725;28;20079;-68
2023/01/28 22:44:19;;;;;;;17.67;14.07;;;;;;;;;;10331389;28;20556;-68
2023/01/28 22:49:20;;;;;;;17.13;15.32;;;;;;;;;;10331042;28;20072;-68
2023/01/28 22:54:19;;;;;;;20.08;16.38;;;;;;;;;;10335046;28;20079;-68
2023/01/28 22:59:17;;;;;;;17.02;14.95;;;;;;;;;;10335937;28;20417;-67
2023/01/28 23:04:15;;;;;;;15.45;13.90;;;;;;;;;;10329987;28;20083;-67
2023/01/28 23:09:15;;;;;;;16.30;14.60;;;;;;;;;;10337494;28;20083;-67
2023/01/28 23:24:46;;;;;;;27.77;23.98;;;;;;;;;;10335991;28;20110;-68
2023/01/28 23:29:44;;;;;;;28.45;22.63;;;;;;;;;;10335595;28;20072;-68
2023/01/28 23:34:43;;;;;;;49.90;31.65;;;;;;;;;;10335774;28;20071;-68
2023/01/28 23:39:42;;;;;;;39.42;26.90;;;;;;;;;;10334240;28;20080;-68
2023/01/28 23:44:42;;;;;;;34.65;24.67;;;;;;;;;;10319067;28;20175;-69
2023/01/28 23:49:40;;;;;;;35.42;27.55;;;;;;;;;;10329180;28;20453;-68
2023/01/28 23:54:38;;;;;;;30.90;23.65;;;;;;;;;;10334746;28;20076;-68
2023/01/28 23:59:37;;;;;;;27.98;24.25;;;;;;;;;;10331128;28;20063;-68
